sensor_id;sensor_type;location;lat;lon;timestamp;P1;durP1;ratioP1;P2;durP2;ratioP2
16033;SDS011;8121;51.418;6.998;2023-06-26T00:01:04;3.67;;;3.40;;
16033;SDS011;8121;51.418;6.998;2023-06-26T00:06:07;5.47;;;4.40;;
16033;SDS011;8121;51.418;6.998;2023-06-26T00:11:08;5.63;;;5.00;;
16033;SDS011;8121;51.418;6.998;2023-06-26T00:16:10;4.73;;;4.27;;
16033;SDS011;8121;51.418;6.998;2023-06-26T00:21:13;6.50;;;5.00;;
16033;SDS011;8121;51.418;6.998;2023-06-26T00:26:14;4.53;;;4.13;;
16033;SDS011;8121;51.418;6.998;2023-06-26T00:31:16;4.07;;;3.67;;
16033;SDS011;8121;51.418;6.998;2023-06-26T00:36:18;4.27;;;3.90;;
16033;SDS011;8121;51.418;6.998;2023-06-26T00:41:22;6.37;;;5.03;;
16033;SDS011;8121;51.418;6.998;2023-06-26T00:46:24;6.27;;;4.93;;
16033;SDS011;8121;51.418;6.998;2023-06-26T00:51:27;5.90;;;4.20;;
16033;SDS011;8121;51.418;6.998;2023-06-26T00:56:29;5.80;;;4.17;;
16033;SDS011;8121;51.418;6.998;2023-06-26T01:01:31;4.17;;;3.80;;
16033;SDS011;8121;51.418;6.998;2023-06-26T01:06:34;5.27;;;4.13;;
16033;SDS011;8121;51.418;6.998;2023-06-26T01:11:36;5.37;;;4.23;;
16033;SDS011;8121;51.418;6.998;2023-06-26T01:16:38;4.50;;;4.10;;
16033;SDS011;8121;51.418;6.998;2023-06-26T01:21:42;3.57;;;3.27;;
16033;SDS011;8121;51.418;6.998;2023-06-26T01:26:46;3.13;;;2.93;;
16033;SDS011;8121;51.418;6.998;2023-06-26T01:31:50;4.73;;;4.30;;
16033;SDS011;8121;51.418;6.998;2023-06-26T01:36:51;4.77;;;4.30;;
16033;SDS011;8121;51.418;6.998;2023-06-26T01:41:54;4.20;;;3.90;;
16033;SDS011;8121;51.418;6.998;2023-06-26T01:46:58;7.30;;;4.73;;
16033;SDS011;8121;51.418;6.998;2023-06-26T01:52:03;6.50;;;4.60;;
16033;SDS011;8121;51.418;6.998;2023-06-26T01:57:10;7.17;;;4.00;;
16033;SDS011;8121;51.418;6.998;2023-06-26T02:02:12;5.63;;;4.63;;
16033;SDS011;8121;51.418;6.998;2023-06-26T02:07:14;12.53;;;4.50;;
16033;SDS011;8121;51.418;6.998;2023-06-26T02:12:17;4.70;;;3.73;;
16033;SDS011;8121;51.418;6.998;2023-06-26T02:17:18;3.60;;;3.33;;
16033;SDS011;8121;51.418;6.998;2023-06-26T02:22:20;7.10;;;4.50;;
16033;SDS011;8121;51.418;6.998;2023-06-26T02:27:23;5.17;;;4.67;;
16033;SDS011;8121;51.418;6.998;2023-06-26T02:32:24;4.03;;;3.67;;
16033;SDS011;8121;51.418;6.998;2023-06-26T02:37:26;5.40;;;4.73;;
16033;SDS011;8121;51.418;6.998;2023-06-26T02:42:28;5.17;;;4.50;;
16033;SDS011;8121;51.418;6.998;2023-06-26T02:47:30;4.70;;;3.97;;
16033;SDS011;8121;51.418;6.998;2023-06-26T02:52:32;5.50;;;4.13;;
16033;SDS011;8121;51.418;6.998;2023-06-26T02:57:35;5.03;;;4.53;;
16033;SDS011;8121;51.418;6.998;2023-06-26T03:02:36;4.80;;;4.30;;
16033;SDS011;8121;51.418;6.998;2023-06-26T03:07:37;5.80;;;5.30;;
16033;SDS011;8121;51.418;6.998;2023-06-26T03:12:40;5.23;;;4.73;;
16033;SDS011;8121;51.418;6.998;2023-06-26T03:17:42;12.97;;;4.97;;
16033;SDS011;8121;51.418;6.998;2023-06-26T03:22:43;6.87;;;4.83;;
16033;SDS011;8121;51.418;6.998;2023-06-26T03:27:46;5.00;;;4.07;;
16033;SDS011;8121;51.418;6.998;2023-06-26T03:32:48;4.40;;;4.00;;
16033;SDS011;8121;51.418;6.998;2023-06-26T03:37:49;5.27;;;4.13;;
16033;SDS011;8121;51.418;6.998;2023-06-26T03:42:52;6.57;;;4.47;;
16033;SDS011;8121;51.418;6.998;2023-06-26T03:47:53;4.13;;;3.83;;
16033;SDS011;8121;51.418;6.998;2023-06-26T03:52:55;5.90;;;4.63;;
16033;SDS011;8121;51.418;6.998;2023-06-26T03:57:58;4.77;;;4.33;;
16033;SDS011;8121;51.418;6.998;2023-06-26T04:02:59;7.03;;;4.37;;
16033;SDS011;8121;51.418;6.998;2023-06-26T04:08:02;6.23;;;3.20;;
16033;SDS011;8121;51.418;6.998;2023-06-26T04:13:05;3.80;;;3.30;;
16033;SDS011;8121;51.418;6.998;2023-06-26T04:18:07;6.50;;;4.17;;
16033;SDS011;8121;51.418;6.998;2023-06-26T04:23:08;8.73;;;3.90;;
16033;SDS011;8121;51.418;6.998;2023-06-26T04:28:11;4.07;;;3.20;;
16033;SDS011;8121;51.418;6.998;2023-06-26T04:33:13;3.63;;;3.33;;
16033;SDS011;8121;51.418;6.998;2023-06-26T04:38:15;3.87;;;3.13;;
16033;SDS011;8121;51.418;6.998;2023-06-26T04:43:18;4.10;;;3.70;;
16033;SDS011;8121;51.418;6.998;2023-06-26T04:48:19;5.40;;;3.50;;
16033;SDS011;8121;51.418;6.998;2023-06-26T04:53:21;9.20;;;5.20;;
16033;SDS011;8121;51.418;6.998;2023-06-26T04:58:25;5.30;;;4.40;;
16033;SDS011;8121;51.418;6.998;2023-06-26T05:03:26;12.40;;;5.20;;
16033;SDS011;8121;51.418;6.998;2023-06-26T05:08:28;7.03;;;4.10;;
16033;SDS011;8121;51.418;6.998;2023-06-26T05:13:30;3.73;;;3.30;;
16033;SDS011;8121;51.418;6.998;2023-06-26T05:18:32;5.17;;;4.20;;
16033;SDS011;8121;51.418;6.998;2023-06-26T05:23:34;3.53;;;3.23;;
16033;SDS011;8121;51.418;6.998;2023-06-26T05:28:37;4.30;;;3.47;;
16033;SDS011;8121;51.418;6.998;2023-06-26T05:33:39;5.17;;;4.10;;
16033;SDS011;8121;51.418;6.998;2023-06-26T05:38:44;6.10;;;4.53;;
16033;SDS011;8121;51.418;6.998;2023-06-26T05:43:47;4.70;;;3.50;;
16033;SDS011;8121;51.418;6.998;2023-06-26T05:48:48;3.10;;;2.90;;
16033;SDS011;8121;51.418;6.998;2023-06-26T05:53:50;4.90;;;4.23;;
16033;SDS011;8121;51.418;6.998;2023-06-26T05:58:53;4.30;;;3.63;;
16033;SDS011;8121;51.418;6.998;2023-06-26T06:03:55;3.63;;;3.33;;
16033;SDS011;8121;51.418;6.998;2023-06-26T06:08:57;4.77;;;3.47;;
16033;SDS011;8121;51.418;6.998;2023-06-26T06:14:00;4.60;;;3.70;;
16033;SDS011;8121;51.418;6.998;2023-06-26T06:19:02;7.47;;;3.63;;
16033;SDS011;8121;51.418;6.998;2023-06-26T06:24:04;6.90;;;4.27;;
16033;SDS011;8121;51.418;6.998;2023-06-26T06:29:08;6.20;;;3.80;;
16033;SDS011;8121;51.418;6.998;2023-06-26T06:34:10;4.77;;;2.97;;
16033;SDS011;8121;51.418;6.998;2023-06-26T06:39:12;5.57;;;3.57;;
16033;SDS011;8121;51.418;6.998;2023-06-26T06:44:15;6.50;;;4.00;;
16033;SDS011;8121;51.418;6.998;2023-06-26T06:49:18;5.80;;;3.57;;
16033;SDS011;8121;51.418;6.998;2023-06-26T06:54:20;10.53;;;4.07;;
16033;SDS011;8121;51.418;6.998;2023-06-26T06:59:23;11.50;;;5.27;;
16033;SDS011;8121;51.418;6.998;2023-06-26T07:04:24;14.23;;;4.13;;
16033;SDS011;8121;51.418;6.998;2023-06-26T07:09:27;12.90;;;3.90;;
16033;SDS011;8121;51.418;6.998;2023-06-26T07:14:30;9.13;;;5.50;;
16033;SDS011;8121;51.418;6.998;2023-06-26T07:19:31;8.30;;;5.23;;
16033;SDS011;8121;51.418;6.998;2023-06-26T07:24:33;6.70;;;4.50;;
16033;SDS011;8121;51.418;6.998;2023-06-26T07:29:36;5.30;;;3.40;;
16033;SDS011;8121;51.418;6.998;2023-06-26T07:34:37;7.17;;;4.37;;
16033;SDS011;8121;51.418;6.998;2023-06-26T07:39:38;5.73;;;3.70;;
16033;SDS011;8121;51.418;6.998;2023-06-26T07:44:42;11.60;;;3.37;;
16033;SDS011;8121;51.418;6.998;2023-06-26T07:49:44;5.53;;;3.33;;
16033;SDS011;8121;51.418;6.998;2023-06-26T07:54:45;2.83;;;2.43;;
16033;SDS011;8121;51.418;6.998;2023-06-26T07:59:49;4.40;;;3.23;;
16033;SDS011;8121;51.418;6.998;2023-06-26T08:04:51;9.93;;;4.57;;
16033;SDS011;8121;51.418;6.998;2023-06-26T08:09:52;5.93;;;3.43;;
16033;SDS011;8121;51.418;6.998;2023-06-26T08:14:55;9.90;;;3.70;;
16033;SDS011;8121;51.418;6.998;2023-06-26T08:19:57;9.57;;;5.83;;
16033;SDS011;8121;51.418;6.998;2023-06-26T08:24:58;5.47;;;3.50;;
16033;SDS011;8121;51.418;6.998;2023-06-26T08:30:01;6.70;;;3.40;;
16033;SDS011;8121;51.418;6.998;2023-06-26T08:35:03;14.73;;;5.17;;
16033;SDS011;8121;51.418;6.998;2023-06-26T08:40:06;10.30;;;3.90;;
16033;SDS011;8121;51.418;6.998;2023-06-26T08:45:21;5.93;;;4.00;;
16033;SDS011;8121;51.418;6.998;2023-06-26T08:50:23;4.40;;;3.00;;
16033;SDS011;8121;51.418;6.998;2023-06-26T08:55:25;3.50;;;3.20;;
16033;SDS011;8121;51.418;6.998;2023-06-26T09:00:29;9.73;;;4.50;;
16033;SDS011;8121;51.418;6.998;2023-06-26T09:05:30;8.40;;;2.43;;
16033;SDS011;8121;51.418;6.998;2023-06-26T09:10:32;19.80;;;4.93;;
16033;SDS011;8121;51.418;6.998;2023-06-26T09:15:39;12.13;;;3.10;;
16033;SDS011;8121;51.418;6.998;2023-06-26T09:20:43;7.93;;;3.77;;
16033;SDS011;8121;51.418;6.998;2023-06-26T09:25:46;5.57;;;3.13;;
16033;SDS011;8121;51.418;6.998;2023-06-26T09:30:49;7.00;;;3.77;;
16033;SDS011;8121;51.418;6.998;2023-06-26T09:35:51;9.70;;;3.03;;
16033;SDS011;8121;51.418;6.998;2023-06-26T09:40:53;5.50;;;2.03;;
16033;SDS011;8121;51.418;6.998;2023-06-26T09:45:55;4.50;;;2.60;;
16033;SDS011;8121;51.418;6.998;2023-06-26T09:50:58;2.70;;;1.80;;
16033;SDS011;8121;51.418;6.998;2023-06-26T09:56:04;7.63;;;2.43;;
16033;SDS011;8121;51.418;6.998;2023-06-26T10:01:08;2.13;;;1.97;;
16033;SDS011;8121;51.418;6.998;2023-06-26T10:06:09;12.00;;;3.60;;
16033;SDS011;8121;51.418;6.998;2023-06-26T10:11:14;6.90;;;2.20;;
16033;SDS011;8121;51.418;6.998;2023-06-26T10:16:20;3.53;;;2.00;;
16033;SDS011;8121;51.418;6.998;2023-06-26T10:21:24;6.37;;;2.50;;
16033;SDS011;8121;51.418;6.998;2023-06-26T10:26:42;6.27;;;2.40;;
16033;SDS011;8121;51.418;6.998;2023-06-26T10:32:07;4.70;;;1.60;;
16033;SDS011;8121;51.418;6.998;2023-06-26T10:37:08;5.53;;;2.60;;
16033;SDS011;8121;51.418;6.998;2023-06-26T10:42:10;2.80;;;2.00;;
16033;SDS011;8121;51.418;6.998;2023-06-26T10:47:28;3.93;;;1.80;;
16033;SDS011;8121;51.418;6.998;2023-06-26T10:52:30;3.43;;;2.30;;
16033;SDS011;8121;51.418;6.998;2023-06-26T10:57:37;5.83;;;2.10;;
16033;SDS011;8121;51.418;6.998;2023-06-26T11:02:49;3.00;;;1.73;;
16033;SDS011;8121;51.418;6.998;2023-06-26T11:08:02;3.33;;;1.90;;
16033;SDS011;8121;51.418;6.998;2023-06-26T11:13:04;2.50;;;2.17;;
16033;SDS011;8121;51.418;6.998;2023-06-26T11:18:08;3.50;;;1.80;;
16033;SDS011;8121;51.418;6.998;2023-06-26T11:23:09;6.93;;;2.00;;
16033;SDS011;8121;51.418;6.998;2023-06-26T11:28:12;1.67;;;1.57;;
16033;SDS011;8121;51.418;6.998;2023-06-26T11:33:15;1.40;;;1.23;;
16033;SDS011;8121;51.418;6.998;2023-06-26T11:38:16;10.07;;;2.30;;
16033;SDS011;8121;51.418;6.998;2023-06-26T11:43:17;2.50;;;1.53;;
16033;SDS011;8121;51.418;6.998;2023-06-26T11:48:22;3.93;;;1.80;;
16033;SDS011;8121;51.418;6.998;2023-06-26T11:53:26;2.03;;;1.80;;
16033;SDS011;8121;51.418;6.998;2023-06-26T11:58:27;3.27;;;1.77;;
16033;SDS011;8121;51.418;6.998;2023-06-26T12:03:31;9.07;;;1.23;;
16033;SDS011;8121;51.418;6.998;2023-06-26T12:08:33;1.73;;;1.57;;
16033;SDS011;8121;51.418;6.998;2023-06-26T12:13:35;1.20;;;1.10;;
16033;SDS011;8121;51.418;6.998;2023-06-26T12:18:38;2.40;;;1.67;;
16033;SDS011;8121;51.418;6.998;2023-06-26T12:23:40;1.63;;;1.10;;
16033;SDS011;8121;51.418;6.998;2023-06-26T12:28:41;4.33;;;1.20;;
16033;SDS011;8121;51.418;6.998;2023-06-26T12:33:47;7.20;;;1.63;;
16033;SDS011;8121;51.418;6.998;2023-06-26T12:38:49;6.50;;;1.80;;
16033;SDS011;8121;51.418;6.998;2023-06-26T12:43:55;2.63;;;1.23;;
16033;SDS011;8121;51.418;6.998;2023-06-26T12:48:58;5.10;;;1.00;;
16033;SDS011;8121;51.418;6.998;2023-06-26T12:54:01;3.10;;;1.17;;
16033;SDS011;8121;51.418;6.998;2023-06-26T12:59:02;1.50;;;1.00;;
16033;SDS011;8121;51.418;6.998;2023-06-26T13:04:05;2.73;;;1.57;;
16033;SDS011;8121;51.418;6.998;2023-06-26T13:09:08;2.83;;;1.00;;
16033;SDS011;8121;51.418;6.998;2023-06-26T13:14:09;1.00;;;0.90;;
16033;SDS011;8121;51.418;6.998;2023-06-26T13:19:12;1.10;;;1.00;;
16033;SDS011;8121;51.418;6.998;2023-06-26T13:24:13;4.50;;;1.00;;
16033;SDS011;8121;51.418;6.998;2023-06-26T13:29:15;20.33;;;1.47;;
16033;SDS011;8121;51.418;6.998;2023-06-26T13:34:22;2.50;;;1.00;;
16033;SDS011;8121;51.418;6.998;2023-06-26T13:39:24;1.37;;;1.27;;
16033;SDS011;8121;51.418;6.998;2023-06-26T13:44:25;3.23;;;1.07;;
16033;SDS011;8121;51.418;6.998;2023-06-26T13:49:28;1.60;;;1.50;;
16033;SDS011;8121;51.418;6.998;2023-06-26T13:54:30;1.93;;;1.70;;
16033;SDS011;8121;51.418;6.998;2023-06-26T13:59:32;5.73;;;1.27;;
16033;SDS011;8121;51.418;6.998;2023-06-26T14:04:35;4.73;;;1.20;;
16033;SDS011;8121;51.418;6.998;2023-06-26T14:09:37;2.27;;;1.30;;
16033;SDS011;8121;51.418;6.998;2023-06-26T14:14:38;3.30;;;1.20;;
16033;SDS011;8121;51.418;6.998;2023-06-26T14:19:41;1.23;;;1.13;;
16033;SDS011;8121;51.418;6.998;2023-06-26T14:24:43;1.33;;;1.03;;
16033;SDS011;8121;51.418;6.998;2023-06-26T14:29:44;8.23;;;1.33;;
16033;SDS011;8121;51.418;6.998;2023-06-26T14:34:47;1.10;;;0.80;;
16033;SDS011;8121;51.418;6.998;2023-06-26T14:39:49;3.30;;;1.30;;
16033;SDS011;8121;51.418;6.998;2023-06-26T14:44:50;4.40;;;1.17;;
16033;SDS011;8121;51.418;6.998;2023-06-26T14:49:53;1.50;;;1.40;;
16033;SDS011;8121;51.418;6.998;2023-06-26T14:54:55;1.17;;;1.07;;
16033;SDS011;8121;51.418;6.998;2023-06-26T14:59:56;5.33;;;1.27;;
16033;SDS011;8121;51.418;6.998;2023-06-26T15:04:59;1.30;;;1.20;;
16033;SDS011;8121;51.418;6.998;2023-06-26T15:10:00;1.30;;;0.67;;
16033;SDS011;8121;51.418;6.998;2023-06-26T15:15:02;1.63;;;1.10;;
16033;SDS011;8121;51.418;6.998;2023-06-26T15:20:07;4.13;;;1.00;;
16033;SDS011;8121;51.418;6.998;2023-06-26T15:25:09;1.53;;;0.90;;
16033;SDS011;8121;51.418;6.998;2023-06-26T15:30:11;1.80;;;1.10;;
16033;SDS011;8121;51.418;6.998;2023-06-26T15:35:16;6.13;;;1.60;;
16033;SDS011;8121;51.418;6.998;2023-06-26T15:40:17;1.90;;;0.80;;
16033;SDS011;8121;51.418;6.998;2023-06-26T15:45:19;1.90;;;1.03;;
16033;SDS011;8121;51.418;6.998;2023-06-26T15:50:23;3.60;;;1.60;;
16033;SDS011;8121;51.418;6.998;2023-06-26T15:55:25;2.50;;;1.20;;
16033;SDS011;8121;51.418;6.998;2023-06-26T16:00:26;4.97;;;1.17;;
16033;SDS011;8121;51.418;6.998;2023-06-26T16:05:29;1.67;;;1.00;;
16033;SDS011;8121;51.418;6.998;2023-06-26T16:10:31;2.60;;;1.03;;
16033;SDS011;8121;51.418;6.998;2023-06-26T16:15:32;6.47;;;1.30;;
16033;SDS011;8121;51.418;6.998;2023-06-26T16:20:35;1.83;;;1.20;;
16033;SDS011;8121;51.418;6.998;2023-06-26T16:25:37;1.80;;;1.27;;
16033;SDS011;8121;51.418;6.998;2023-06-26T16:30:38;3.33;;;1.13;;
16033;SDS011;8121;51.418;6.998;2023-06-26T16:35:41;4.17;;;1.50;;
16033;SDS011;8121;51.418;6.998;2023-06-26T16:40:42;3.17;;;1.07;;
16033;SDS011;8121;51.418;6.998;2023-06-26T16:45:44;3.13;;;1.50;;
16033;SDS011;8121;51.418;6.998;2023-06-26T16:50:47;1.50;;;1.40;;
16033;SDS011;8121;51.418;6.998;2023-06-26T16:55:49;4.57;;;1.60;;
16033;SDS011;8121;51.418;6.998;2023-06-26T17:00:50;4.63;;;1.60;;
16033;SDS011;8121;51.418;6.998;2023-06-26T17:05:53;2.10;;;1.33;;
16033;SDS011;8121;51.418;6.998;2023-06-26T17:10:55;1.97;;;1.10;;
16033;SDS011;8121;51.418;6.998;2023-06-26T17:15:56;0.80;;;0.67;;
16033;SDS011;8121;51.418;6.998;2023-06-26T17:20:59;3.00;;;0.90;;
16033;SDS011;8121;51.418;6.998;2023-06-26T17:26:00;1.20;;;1.10;;
16033;SDS011;8121;51.418;6.998;2023-06-26T17:31:02;2.90;;;0.90;;
16033;SDS011;8121;51.418;6.998;2023-06-26T17:36:05;2.77;;;1.17;;
16033;SDS011;8121;51.418;6.998;2023-06-26T17:41:07;2.20;;;1.00;;
16033;SDS011;8121;51.418;6.998;2023-06-26T17:46:08;1.30;;;0.87;;
16033;SDS011;8121;51.418;6.998;2023-06-26T17:51:12;8.33;;;1.20;;
16033;SDS011;8121;51.418;6.998;2023-06-26T17:56:13;5.03;;;1.17;;
16033;SDS011;8121;51.418;6.998;2023-06-26T18:01:15;10.80;;;1.87;;
16033;SDS011;8121;51.418;6.998;2023-06-26T18:06:18;1.20;;;0.90;;
16033;SDS011;8121;51.418;6.998;2023-06-26T18:11:19;1.67;;;0.90;;
16033;SDS011;8121;51.418;6.998;2023-06-26T18:16:20;2.43;;;1.37;;
16033;SDS011;8121;51.418;6.998;2023-06-26T18:21:24;1.47;;;1.20;;
16033;SDS011;8121;51.418;6.998;2023-06-26T18:26:26;1.30;;;1.13;;
16033;SDS011;8121;51.418;6.998;2023-06-26T18:31:27;2.30;;;0.90;;
16033;SDS011;8121;51.418;6.998;2023-06-26T18:36:33;4.50;;;1.10;;
16033;SDS011;8121;51.418;6.998;2023-06-26T18:41:35;7.90;;;1.60;;
16033;SDS011;8121;51.418;6.998;2023-06-26T18:46:36;2.00;;;1.00;;
16033;SDS011;8121;51.418;6.998;2023-06-26T18:51:40;2.90;;;1.50;;
16033;SDS011;8121;51.418;6.998;2023-06-26T18:56:41;1.93;;;0.97;;
16033;SDS011;8121;51.418;6.998;2023-06-26T19:01:43;2.73;;;1.07;;
16033;SDS011;8121;51.418;6.998;2023-06-26T19:06:46;1.87;;;0.83;;
16033;SDS011;8121;51.418;6.998;2023-06-26T19:11:47;1.73;;;0.80;;
16033;SDS011;8121;51.418;6.998;2023-06-26T19:16:49;1.07;;;0.97;;
16033;SDS011;8121;51.418;6.998;2023-06-26T19:21:52;1.23;;;1.03;;
16033;SDS011;8121;51.418;6.998;2023-06-26T19:26:54;2.40;;;1.00;;
16033;SDS011;8121;51.418;6.998;2023-06-26T19:31:57;2.80;;;1.17;;
16033;SDS011;8121;51.418;6.998;2023-06-26T19:37:01;1.13;;;0.60;;
16033;SDS011;8121;51.418;6.998;2023-06-26T19:42:05;4.70;;;0.80;;
16033;SDS011;8121;51.418;6.998;2023-06-26T19:47:07;1.93;;;0.87;;
16033;SDS011;8121;51.418;6.998;2023-06-26T19:52:10;5.13;;;0.80;;
16033;SDS011;8121;51.418;6.998;2023-06-26T19:57:12;1.27;;;0.97;;
16033;SDS011;8121;51.418;6.998;2023-06-26T20:02:14;3.47;;;1.20;;
16033;SDS011;8121;51.418;6.998;2023-06-26T20:07:17;2.00;;;1.20;;
16033;SDS011;8121;51.418;6.998;2023-06-26T20:12:19;2.10;;;0.97;;
16033;SDS011;8121;51.418;6.998;2023-06-26T20:17:20;1.30;;;1.00;;
16033;SDS011;8121;51.418;6.998;2023-06-26T20:22:24;6.37;;;1.83;;
16033;SDS011;8121;51.418;6.998;2023-06-26T20:27:25;1.90;;;1.00;;
16033;SDS011;8121;51.418;6.998;2023-06-26T20:32:27;1.00;;;0.70;;
16033;SDS011;8121;51.418;6.998;2023-06-26T20:37:30;2.00;;;0.80;;
16033;SDS011;8121;51.418;6.998;2023-06-26T20:42:32;3.33;;;0.80;;
16033;SDS011;8121;51.418;6.998;2023-06-26T20:47:34;0.90;;;0.70;;
16033;SDS011;8121;51.418;6.998;2023-06-26T20:52:43;0.97;;;0.87;;
16033;SDS011;8121;51.418;6.998;2023-06-26T20:57:45;1.17;;;1.03;;
16033;SDS011;8121;51.418;6.998;2023-06-26T21:02:46;3.93;;;1.27;;
16033;SDS011;8121;51.418;6.998;2023-06-26T21:07:49;0.90;;;0.80;;
16033;SDS011;8121;51.418;6.998;2023-06-26T21:12:51;0.80;;;0.77;;
16033;SDS011;8121;51.418;6.998;2023-06-26T21:17:53;1.10;;;0.87;;
16033;SDS011;8121;51.418;6.998;2023-06-26T21:22:56;2.70;;;1.37;;
16033;SDS011;8121;51.418;6.998;2023-06-26T21:27:57;2.73;;;1.23;;
16033;SDS011;8121;51.418;6.998;2023-06-26T21:32:59;1.33;;;0.83;;
16033;SDS011;8121;51.418;6.998;2023-06-26T21:38:01;0.80;;;0.70;;
16033;SDS011;8121;51.418;6.998;2023-06-26T21:43:03;1.43;;;0.80;;
16033;SDS011;8121;51.418;6.998;2023-06-26T21:48:05;3.03;;;0.80;;
16033;SDS011;8121;51.418;6.998;2023-06-26T21:53:08;3.83;;;1.20;;
16033;SDS011;8121;51.418;6.998;2023-06-26T21:58:09;6.27;;;1.10;;
16033;SDS011;8121;51.418;6.998;2023-06-26T22:03:11;1.53;;;1.07;;
16033;SDS011;8121;51.418;6.998;2023-06-26T22:08:14;3.47;;;1.43;;
16033;SDS011;8121;51.418;6.998;2023-06-26T22:13:16;4.40;;;1.43;;
16033;SDS011;8121;51.418;6.998;2023-06-26T22:18:18;4.17;;;1.43;;
16033;SDS011;8121;51.418;6.998;2023-06-26T22:23:21;1.33;;;1.23;;
16033;SDS011;8121;51.418;6.998;2023-06-26T22:28:22;2.23;;;1.10;;
16033;SDS011;8121;51.418;6.998;2023-06-26T22:33:24;1.27;;;1.17;;
16033;SDS011;8121;51.418;6.998;2023-06-26T22:38:26;1.20;;;1.10;;
16033;SDS011;8121;51.418;6.998;2023-06-26T22:43:28;4.70;;;1.53;;
16033;SDS011;8121;51.418;6.998;2023-06-26T22:48:29;8.83;;;1.60;;
16033;SDS011;8121;51.418;6.998;2023-06-26T22:53:32;8.10;;;1.50;;
16033;SDS011;8121;51.418;6.998;2023-06-26T22:58:34;2.00;;;1.90;;
16033;SDS011;8121;51.418;6.998;2023-06-26T23:03:35;8.07;;;2.03;;
16033;SDS011;8121;51.418;6.998;2023-06-26T23:08:38;1.77;;;1.00;;
16033;SDS011;8121;51.418;6.998;2023-06-26T23:13:40;2.50;;;1.37;;
16033;SDS011;8121;51.418;6.998;2023-06-26T23:18:41;5.73;;;1.60;;
16033;SDS011;8121;51.418;6.998;2023-06-26T23:23:44;7.40;;;1.70;;
16033;SDS011;8121;51.418;6.998;2023-06-26T23:28:46;2.57;;;1.37;;
16033;SDS011;8121;51.418;6.998;2023-06-26T23:33:47;8.17;;;2.20;;
16033;SDS011;8121;51.418;6.998;2023-06-26T23:38:51;5.30;;;1.70;;
16033;SDS011;8121;51.418;6.998;2023-06-26T23:43:52;6.93;;;2.50;;
16033;SDS011;8121;51.418;6.998;2023-06-26T23:48:54;3.33;;;1.40;;
16033;SDS011;8121;51.418;6.998;2023-06-26T23:53:57;3.13;;;1.33;;
16033;SDS011;8121;51.418;6.998;2023-06-26T23:58:58;4.30;;;1.53;;
